Terminal Aerodrome Forecast
Issued by NWS Shreveport, LA

Home | Current Version | Previous Version | Text Only | Print | Product List | Glossary On
Versions: 1 2 3 4 5 6 7 8 9 10 11 12 13 14 15
000
FTUS44 KSHV 210405 AAA
TAFLFK
TAF AMD
KLFK 210405Z 2104/2124 VRB04KT P6SM BKN005
      TEMPO 2104/2105 -SHRA
     FM211100 00000KT 3SM BR SCT015 BKN100 BKN250
     FM211400 VRB03KT P6SM SCT015 BKN080 BKN250
     FM211600 VRB03KT P6SM SCT025 BKN150
     FM211800 VRB04KT P6SM VCTS BKN040CB BKN250=

USA.gov is the U.S. government's official web portal to all federal, state and local government web resources and services.